sensor_id;sensor_type;location;lat;lon;timestamp;temperature;humidity
11047;DHT22;5576;50.008;10.596;2023-05-10T00:01:51;15.60;99.90
11047;DHT22;5576;50.008;10.596;2023-05-10T00:04:17;15.60;99.90
11047;DHT22;5576;50.008;10.596;2023-05-10T00:06:43;16.40;99.90
11047;DHT22;5576;50.008;10.596;2023-05-10T00:09:08;15.50;99.90
11047;DHT22;5576;50.008;10.596;2023-05-10T00:11:34;15.70;99.90
11047;DHT22;5576;50.008;10.596;2023-05-10T00:14:00;17.50;99.90
11047;DHT22;5576;50.008;10.596;2023-05-10T00:16:26;19.40;99.90
11047;DHT22;5576;50.008;10.596;2023-05-10T00:18:51;15.50;99.90
11047;DHT22;5576;50.008;10.596;2023-05-10T00:21:17;13.90;99.90
11047;DHT22;5576;50.008;10.596;2023-05-10T00:23:43;15.30;99.90
11047;DHT22;5576;50.008;10.596;2023-05-10T00:26:08;15.30;99.90
11047;DHT22;5576;50.008;10.596;2023-05-10T00:28:36;15.30;99.90
11047;DHT22;5576;50.008;10.596;2023-05-10T00:31:02;15.30;99.90
11047;DHT22;5576;50.008;10.596;2023-05-10T00:33:29;15.30;99.90
11047;DHT22;5576;50.008;10.596;2023-05-10T00:35:55;15.30;99.90
11047;DHT22;5576;50.008;10.596;2023-05-10T00:38:20;15.20;99.90
11047;DHT22;5576;50.008;10.596;2023-05-10T00:40:46;14.70;99.90
11047;DHT22;5576;50.008;10.596;2023-05-10T00:43:20;15.20;99.90
11047;DHT22;5576;50.008;10.596;2023-05-10T00:45:46;15.10;99.90
11047;DHT22;5576;50.008;10.596;2023-05-10T00:48:13;15.20;99.90
11047;DHT22;5576;50.008;10.596;2023-05-10T00:50:39;15.20;99.90
11047;DHT22;5576;50.008;10.596;2023-05-10T00:53:05;15.10;99.90
11047;DHT22;5576;50.008;10.596;2023-05-10T00:55:31;15.20;99.90
11047;DHT22;5576;50.008;10.596;2023-05-10T00:57:57;15.10;99.90
11047;DHT22;5576;50.008;10.596;2023-05-10T01:00:23;12.50;99.90
11047;DHT22;5576;50.008;10.596;2023-05-10T01:02:49;15.10;99.90
11047;DHT22;5576;50.008;10.596;2023-05-10T01:05:15;15.10;99.90
11047;DHT22;5576;50.008;10.596;2023-05-10T01:07:41;15.10;99.90
11047;DHT22;5576;50.008;10.596;2023-05-10T01:10:09;15.10;99.90
11047;DHT22;5576;50.008;10.596;2023-05-10T01:12:38;15.00;99.90
11047;DHT22;5576;50.008;10.596;2023-05-10T01:15:06;15.10;99.90
11047;DHT22;5576;50.008;10.596;2023-05-10T01:17:34;15.20;99.90
11047;DHT22;5576;50.008;10.596;2023-05-10T01:20:00;15.10;99.90
11047;DHT22;5576;50.008;10.596;2023-05-10T01:25:24;15.00;99.90
11047;DHT22;5576;50.008;10.596;2023-05-10T01:36:35;15.00;99.90
11047;DHT22;5576;50.008;10.596;2023-05-10T01:39:15;15.10;99.90
11047;DHT22;5576;50.008;10.596;2023-05-10T01:41:56;15.10;99.90
11047;DHT22;5576;50.008;10.596;2023-05-10T01:44:37;15.20;99.90
11047;DHT22;5576;50.008;10.596;2023-05-10T01:49:54;13.80;99.90
11047;DHT22;5576;50.008;10.596;2023-05-10T01:52:25;15.20;99.90
11047;DHT22;5576;50.008;10.596;2023-05-10T01:55:00;15.10;99.90
11047;DHT22;5576;50.008;10.596;2023-05-10T01:57:32;15.20;99.90
11047;DHT22;5576;50.008;10.596;2023-05-10T02:00:01;15.30;99.90
11047;DHT22;5576;50.008;10.596;2023-05-10T02:02:44;19.10;99.90
11047;DHT22;5576;50.008;10.596;2023-05-10T02:05:13;15.10;99.90
11047;DHT22;5576;50.008;10.596;2023-05-10T02:07:39;18.80;99.90
11047;DHT22;5576;50.008;10.596;2023-05-10T02:10:07;15.20;99.90
11047;DHT22;5576;50.008;10.596;2023-05-10T02:12:37;15.20;99.90
11047;DHT22;5576;50.008;10.596;2023-05-10T02:15:05;15.20;99.90
11047;DHT22;5576;50.008;10.596;2023-05-10T02:17:33;15.10;99.90
11047;DHT22;5576;50.008;10.596;2023-05-10T02:20:01;15.10;99.90
11047;DHT22;5576;50.008;10.596;2023-05-10T02:22:30;15.10;99.90
11047;DHT22;5576;50.008;10.596;2023-05-10T02:24:58;15.10;99.90
11047;DHT22;5576;50.008;10.596;2023-05-10T02:27:25;15.00;99.90
11047;DHT22;5576;50.008;10.596;2023-05-10T02:29:53;14.00;99.90
11047;DHT22;5576;50.008;10.596;2023-05-10T02:32:22;15.10;99.90
11047;DHT22;5576;50.008;10.596;2023-05-10T02:34:49;13.50;99.90
11047;DHT22;5576;50.008;10.596;2023-05-10T02:37:19;15.00;99.90
11047;DHT22;5576;50.008;10.596;2023-05-10T02:39:47;15.10;99.90
11047;DHT22;5576;50.008;10.596;2023-05-10T02:42:18;15.10;99.90
11047;DHT22;5576;50.008;10.596;2023-05-10T02:44:47;14.90;99.90
11047;DHT22;5576;50.008;10.596;2023-05-10T02:47:14;15.00;99.90
11047;DHT22;5576;50.008;10.596;2023-05-10T02:49:40;17.00;99.90
11047;DHT22;5576;50.008;10.596;2023-05-10T02:52:08;19.00;99.90
11047;DHT22;5576;50.008;10.596;2023-05-10T02:54:54;15.00;99.90
11047;DHT22;5576;50.008;10.596;2023-05-10T02:57:25;15.10;99.90
11047;DHT22;5576;50.008;10.596;2023-05-10T02:59:52;15.10;99.90
11047;DHT22;5576;50.008;10.596;2023-05-10T03:02:17;15.10;99.90
11047;DHT22;5576;50.008;10.596;2023-05-10T03:04:43;15.10;99.90
11047;DHT22;5576;50.008;10.596;2023-05-10T03:07:09;15.00;99.90
11047;DHT22;5576;50.008;10.596;2023-05-10T03:09:35;11.20;99.90
11047;DHT22;5576;50.008;10.596;2023-05-10T03:15:06;15.20;99.90
11047;DHT22;5576;50.008;10.596;2023-05-10T03:17:52;15.20;99.90
11047;DHT22;5576;50.008;10.596;2023-05-10T03:20:26;15.30;99.90
11047;DHT22;5576;50.008;10.596;2023-05-10T03:23:02;15.40;99.90
11047;DHT22;5576;50.008;10.596;2023-05-10T03:25:31;15.50;99.90
11047;DHT22;5576;50.008;10.596;2023-05-10T03:27:57;15.40;99.90
11047;DHT22;5576;50.008;10.596;2023-05-10T03:30:24;15.50;99.90
11047;DHT22;5576;50.008;10.596;2023-05-10T03:32:51;15.60;99.90
11047;DHT22;5576;50.008;10.596;2023-05-10T03:35:17;15.40;99.90
11047;DHT22;5576;50.008;10.596;2023-05-10T03:37:43;15.40;99.90
11047;DHT22;5576;50.008;10.596;2023-05-10T03:40:09;15.40;99.90
11047;DHT22;5576;50.008;10.596;2023-05-10T03:42:37;16.30;99.90
11047;DHT22;5576;50.008;10.596;2023-05-10T03:45:03;15.10;99.90
11047;DHT22;5576;50.008;10.596;2023-05-10T03:47:29;15.20;99.90
11047;DHT22;5576;50.008;10.596;2023-05-10T03:49:55;16.60;99.90
11047;DHT22;5576;50.008;10.596;2023-05-10T03:52:21;15.20;99.90
11047;DHT22;5576;50.008;10.596;2023-05-10T03:54:48;16.70;99.90
11047;DHT22;5576;50.008;10.596;2023-05-10T03:57:14;15.20;99.90
11047;DHT22;5576;50.008;10.596;2023-05-10T03:59:40;15.10;99.90
11047;DHT22;5576;50.008;10.596;2023-05-10T04:02:06;13.10;99.90
11047;DHT22;5576;50.008;10.596;2023-05-10T04:04:31;15.00;99.90
11047;DHT22;5576;50.008;10.596;2023-05-10T04:06:57;14.90;99.90
11047;DHT22;5576;50.008;10.596;2023-05-10T04:09:24;15.00;99.90
11047;DHT22;5576;50.008;10.596;2023-05-10T04:11:49;14.90;99.90
11047;DHT22;5576;50.008;10.596;2023-05-10T04:14:15;14.90;99.90
11047;DHT22;5576;50.008;10.596;2023-05-10T04:16:41;14.90;99.90
11047;DHT22;5576;50.008;10.596;2023-05-10T04:19:07;14.70;99.90
11047;DHT22;5576;50.008;10.596;2023-05-10T04:21:33;14.90;99.90
11047;DHT22;5576;50.008;10.596;2023-05-10T04:23:59;14.90;99.90
11047;DHT22;5576;50.008;10.596;2023-05-10T04:26:24;15.00;99.90
11047;DHT22;5576;50.008;10.596;2023-05-10T04:28:51;14.90;99.90
11047;DHT22;5576;50.008;10.596;2023-05-10T04:31:16;14.80;99.90
11047;DHT22;5576;50.008;10.596;2023-05-10T04:33:42;14.80;99.90
11047;DHT22;5576;50.008;10.596;2023-05-10T04:36:08;14.80;99.90
11047;DHT22;5576;50.008;10.596;2023-05-10T04:38:34;15.90;99.90
11047;DHT22;5576;50.008;10.596;2023-05-10T04:41:08;14.60;99.90
11047;DHT22;5576;50.008;10.596;2023-05-10T04:43:34;14.60;99.90
11047;DHT22;5576;50.008;10.596;2023-05-10T04:46:00;14.50;99.90
11047;DHT22;5576;50.008;10.596;2023-05-10T04:48:26;11.90;99.90
11047;DHT22;5576;50.008;10.596;2023-05-10T04:50:52;11.80;99.90
11047;DHT22;5576;50.008;10.596;2023-05-10T04:53:18;14.60;99.90
11047;DHT22;5576;50.008;10.596;2023-05-10T04:55:44;14.70;99.90
11047;DHT22;5576;50.008;10.596;2023-05-10T04:58:10;14.70;99.90
11047;DHT22;5576;50.008;10.596;2023-05-10T05:00:35;14.80;99.90
11047;DHT22;5576;50.008;10.596;2023-05-10T05:03:01;13.60;99.90
11047;DHT22;5576;50.008;10.596;2023-05-10T05:05:27;15.00;99.90
11047;DHT22;5576;50.008;10.596;2023-05-10T05:07:53;16.40;99.90
11047;DHT22;5576;50.008;10.596;2023-05-10T05:10:18;18.10;99.90
11047;DHT22;5576;50.008;10.596;2023-05-10T05:12:44;15.00;99.90
11047;DHT22;5576;50.008;10.596;2023-05-10T05:15:10;15.10;99.90
11047;DHT22;5576;50.008;10.596;2023-05-10T05:17:36;15.00;99.90
11047;DHT22;5576;50.008;10.596;2023-05-10T05:20:02;15.00;99.90
11047;DHT22;5576;50.008;10.596;2023-05-10T05:22:28;17.30;99.90
11047;DHT22;5576;50.008;10.596;2023-05-10T05:24:55;15.10;99.90
11047;DHT22;5576;50.008;10.596;2023-05-10T05:27:21;15.10;99.90
11047;DHT22;5576;50.008;10.596;2023-05-10T05:29:51;15.00;99.90
11047;DHT22;5576;50.008;10.596;2023-05-10T05:32:17;14.70;99.90
11047;DHT22;5576;50.008;10.596;2023-05-10T05:34:44;14.70;99.90
11047;DHT22;5576;50.008;10.596;2023-05-10T05:37:15;14.80;99.90
11047;DHT22;5576;50.008;10.596;2023-05-10T05:39:41;14.70;99.90
11047;DHT22;5576;50.008;10.596;2023-05-10T05:42:08;14.80;99.90
11047;DHT22;5576;50.008;10.596;2023-05-10T05:44:34;14.80;99.90
11047;DHT22;5576;50.008;10.596;2023-05-10T05:47:00;14.80;99.90
11047;DHT22;5576;50.008;10.596;2023-05-10T05:49:26;14.80;99.90
11047;DHT22;5576;50.008;10.596;2023-05-10T05:51:52;14.80;99.90
11047;DHT22;5576;50.008;10.596;2023-05-10T05:54:17;14.80;99.90
11047;DHT22;5576;50.008;10.596;2023-05-10T05:56:43;14.70;99.90
11047;DHT22;5576;50.008;10.596;2023-05-10T05:59:10;14.60;99.90
11047;DHT22;5576;50.008;10.596;2023-05-10T06:01:36;13.00;99.90
11047;DHT22;5576;50.008;10.596;2023-05-10T06:04:01;14.60;99.90
11047;DHT22;5576;50.008;10.596;2023-05-10T06:06:27;15.30;99.90
11047;DHT22;5576;50.008;10.596;2023-05-10T06:08:53;13.30;99.90
11047;DHT22;5576;50.008;10.596;2023-05-10T06:11:19;16.90;99.90
11047;DHT22;5576;50.008;10.596;2023-05-10T06:13:47;14.90;99.90
11047;DHT22;5576;50.008;10.596;2023-05-10T06:16:13;14.70;99.90
11047;DHT22;5576;50.008;10.596;2023-05-10T06:18:39;14.90;99.90
11047;DHT22;5576;50.008;10.596;2023-05-10T06:21:05;14.90;99.90
11047;DHT22;5576;50.008;10.596;2023-05-10T06:23:30;13.50;99.90
11047;DHT22;5576;50.008;10.596;2023-05-10T06:25:56;11.60;99.90
11047;DHT22;5576;50.008;10.596;2023-05-10T06:28:22;14.90;99.90
11047;DHT22;5576;50.008;10.596;2023-05-10T06:30:48;15.00;99.90
11047;DHT22;5576;50.008;10.596;2023-05-10T06:33:13;14.90;99.90
11047;DHT22;5576;50.008;10.596;2023-05-10T06:35:39;13.20;99.90
11047;DHT22;5576;50.008;10.596;2023-05-10T06:38:05;14.80;99.90
11047;DHT22;5576;50.008;10.596;2023-05-10T06:40:31;15.20;99.90
11047;DHT22;5576;50.008;10.596;2023-05-10T06:42:57;11.30;99.90
11047;DHT22;5576;50.008;10.596;2023-05-10T06:45:22;14.10;99.90
11047;DHT22;5576;50.008;10.596;2023-05-10T06:47:48;15.60;99.90
11047;DHT22;5576;50.008;10.596;2023-05-10T06:50:14;15.30;99.90
11047;DHT22;5576;50.008;10.596;2023-05-10T06:52:39;14.80;99.90
11047;DHT22;5576;50.008;10.596;2023-05-10T06:55:06;15.60;99.90
11047;DHT22;5576;50.008;10.596;2023-05-10T06:57:32;15.40;99.90
11047;DHT22;5576;50.008;10.596;2023-05-10T06:59:58;13.10;99.90
11047;DHT22;5576;50.008;10.596;2023-05-10T07:02:24;15.50;99.90
11047;DHT22;5576;50.008;10.596;2023-05-10T07:04:50;15.50;99.90
11047;DHT22;5576;50.008;10.596;2023-05-10T07:07:17;15.50;99.90
11047;DHT22;5576;50.008;10.596;2023-05-10T07:09:43;15.50;99.90
11047;DHT22;5576;50.008;10.596;2023-05-10T07:12:09;15.60;99.90
11047;DHT22;5576;50.008;10.596;2023-05-10T07:14:35;15.60;99.90
11047;DHT22;5576;50.008;10.596;2023-05-10T07:17:01;14.40;99.90
11047;DHT22;5576;50.008;10.596;2023-05-10T07:19:26;15.70;99.90
11047;DHT22;5576;50.008;10.596;2023-05-10T07:21:52;15.80;99.90
11047;DHT22;5576;50.008;10.596;2023-05-10T07:24:18;17.10;99.90
11047;DHT22;5576;50.008;10.596;2023-05-10T07:26:43;15.80;99.90
11047;DHT22;5576;50.008;10.596;2023-05-10T07:29:09;15.80;99.90
11047;DHT22;5576;50.008;10.596;2023-05-10T07:31:35;16.10;99.90
11047;DHT22;5576;50.008;10.596;2023-05-10T07:34:01;17.90;99.90
11047;DHT22;5576;50.008;10.596;2023-05-10T07:36:26;16.00;99.90
11047;DHT22;5576;50.008;10.596;2023-05-10T07:38:53;20.00;99.90
11047;DHT22;5576;50.008;10.596;2023-05-10T07:41:18;15.90;99.90
11047;DHT22;5576;50.008;10.596;2023-05-10T07:43:44;15.90;99.90
11047;DHT22;5576;50.008;10.596;2023-05-10T07:46:10;15.90;99.90
11047;DHT22;5576;50.008;10.596;2023-05-10T07:48:37;13.50;99.90
11047;DHT22;5576;50.008;10.596;2023-05-10T07:51:03;16.80;99.90
11047;DHT22;5576;50.008;10.596;2023-05-10T07:53:28;11.80;99.90
11047;DHT22;5576;50.008;10.596;2023-05-10T07:55:57;16.00;99.90
11047;DHT22;5576;50.008;10.596;2023-05-10T07:58:24;19.90;99.90
11047;DHT22;5576;50.008;10.596;2023-05-10T08:00:50;16.10;99.90
11047;DHT22;5576;50.008;10.596;2023-05-10T08:03:16;16.10;99.90
11047;DHT22;5576;50.008;10.596;2023-05-10T08:05:41;16.20;99.90
11047;DHT22;5576;50.008;10.596;2023-05-10T08:08:07;16.20;99.90
11047;DHT22;5576;50.008;10.596;2023-05-10T08:10:33;19.30;99.90
11047;DHT22;5576;50.008;10.596;2023-05-10T08:12:58;16.30;99.90
11047;DHT22;5576;50.008;10.596;2023-05-10T08:15:25;15.20;99.90
11047;DHT22;5576;50.008;10.596;2023-05-10T08:17:52;15.80;99.90
11047;DHT22;5576;50.008;10.596;2023-05-10T08:20:18;16.30;99.90
11047;DHT22;5576;50.008;10.596;2023-05-10T08:22:45;16.50;99.90
11047;DHT22;5576;50.008;10.596;2023-05-10T08:25:11;18.50;99.90
11047;DHT22;5576;50.008;10.596;2023-05-10T08:27:37;16.10;99.90
11047;DHT22;5576;50.008;10.596;2023-05-10T08:30:03;16.50;99.90
11047;DHT22;5576;50.008;10.596;2023-05-10T08:32:29;13.40;99.90
11047;DHT22;5576;50.008;10.596;2023-05-10T08:34:55;16.50;99.90
11047;DHT22;5576;50.008;10.596;2023-05-10T08:37:23;16.60;99.90
11047;DHT22;5576;50.008;10.596;2023-05-10T08:39:48;16.50;99.90
11047;DHT22;5576;50.008;10.596;2023-05-10T08:42:19;16.50;99.90
11047;DHT22;5576;50.008;10.596;2023-05-10T08:44:48;20.60;99.90
11047;DHT22;5576;50.008;10.596;2023-05-10T08:47:15;18.40;99.90
11047;DHT22;5576;50.008;10.596;2023-05-10T08:49:43;16.70;99.90
11047;DHT22;5576;50.008;10.596;2023-05-10T08:52:11;13.80;99.90
11047;DHT22;5576;50.008;10.596;2023-05-10T08:54:38;15.30;99.90
11047;DHT22;5576;50.008;10.596;2023-05-10T08:57:03;16.30;99.90
11047;DHT22;5576;50.008;10.596;2023-05-10T08:59:29;16.20;99.90
11047;DHT22;5576;50.008;10.596;2023-05-10T09:01:58;17.70;99.90
11047;DHT22;5576;50.008;10.596;2023-05-10T09:04:24;20.10;99.90
11047;DHT22;5576;50.008;10.596;2023-05-10T09:06:50;16.20;99.90
11047;DHT22;5576;50.008;10.596;2023-05-10T09:09:17;16.20;99.90
11047;DHT22;5576;50.008;10.596;2023-05-10T09:11:44;16.40;99.90
11047;DHT22;5576;50.008;10.596;2023-05-10T09:14:11;16.30;99.90
11047;DHT22;5576;50.008;10.596;2023-05-10T09:16:38;16.10;99.90
11047;DHT22;5576;50.008;10.596;2023-05-10T09:19:04;15.90;99.90
11047;DHT22;5576;50.008;10.596;2023-05-10T09:21:30;15.60;99.90
11047;DHT22;5576;50.008;10.596;2023-05-10T09:23:56;17.20;99.90
11047;DHT22;5576;50.008;10.596;2023-05-10T09:26:23;15.50;99.90
11047;DHT22;5576;50.008;10.596;2023-05-10T09:28:54;15.60;99.90
11047;DHT22;5576;50.008;10.596;2023-05-10T09:31:21;15.70;99.90
11047;DHT22;5576;50.008;10.596;2023-05-10T09:33:48;15.70;99.90
11047;DHT22;5576;50.008;10.596;2023-05-10T09:36:14;15.50;99.90
11047;DHT22;5576;50.008;10.596;2023-05-10T09:38:57;15.60;99.90
11047;DHT22;5576;50.008;10.596;2023-05-10T09:41:23;15.70;99.90
11047;DHT22;5576;50.008;10.596;2023-05-10T09:43:49;15.70;99.90
11047;DHT22;5576;50.008;10.596;2023-05-10T09:46:16;15.70;99.90
11047;DHT22;5576;50.008;10.596;2023-05-10T09:48:44;15.70;99.90
11047;DHT22;5576;50.008;10.596;2023-05-10T09:51:10;15.90;99.90
11047;DHT22;5576;50.008;10.596;2023-05-10T09:53:36;16.20;99.90
11047;DHT22;5576;50.008;10.596;2023-05-10T09:56:02;16.20;99.90
11047;DHT22;5576;50.008;10.596;2023-05-10T09:58:27;15.80;99.90
11047;DHT22;5576;50.008;10.596;2023-05-10T10:00:53;15.80;99.90
11047;DHT22;5576;50.008;10.596;2023-05-10T10:03:21;15.80;99.90
11047;DHT22;5576;50.008;10.596;2023-05-10T10:05:48;15.90;99.90
11047;DHT22;5576;50.008;10.596;2023-05-10T10:08:15;16.10;99.90
11047;DHT22;5576;50.008;10.596;2023-05-10T10:10:41;16.30;99.90
11047;DHT22;5576;50.008;10.596;2023-05-10T10:13:09;16.30;99.90
11047;DHT22;5576;50.008;10.596;2023-05-10T10:15:35;16.50;99.90
11047;DHT22;5576;50.008;10.596;2023-05-10T10:18:02;16.60;99.90
11047;DHT22;5576;50.008;10.596;2023-05-10T10:20:29;12.90;99.90
11047;DHT22;5576;50.008;10.596;2023-05-10T10:22:55;14.00;99.90
11047;DHT22;5576;50.008;10.596;2023-05-10T10:25:21;16.80;99.90
11047;DHT22;5576;50.008;10.596;2023-05-10T10:28:16;16.80;99.90
11047;DHT22;5576;50.008;10.596;2023-05-10T10:30:48;16.80;99.90
11047;DHT22;5576;50.008;10.596;2023-05-10T10:35:50;19.50;99.90
11047;DHT22;5576;50.008;10.596;2023-05-10T10:38:17;16.90;99.90
11047;DHT22;5576;50.008;10.596;2023-05-10T10:40:43;17.00;99.90
11047;DHT22;5576;50.008;10.596;2023-05-10T10:43:26;17.00;99.90
11047;DHT22;5576;50.008;10.596;2023-05-10T10:46:13;20.50;99.90
11047;DHT22;5576;50.008;10.596;2023-05-10T10:48:41;20.70;99.90
11047;DHT22;5576;50.008;10.596;2023-05-10T10:51:13;17.40;99.90
11047;DHT22;5576;50.008;10.596;2023-05-10T10:53:40;20.10;99.90
11047;DHT22;5576;50.008;10.596;2023-05-10T10:56:08;17.60;99.90
11047;DHT22;5576;50.008;10.596;2023-05-10T10:58:36;17.80;99.90
11047;DHT22;5576;50.008;10.596;2023-05-10T11:01:19;18.10;99.90
11047;DHT22;5576;50.008;10.596;2023-05-10T11:06:30;20.20;99.90
11047;DHT22;5576;50.008;10.596;2023-05-10T11:08:58;18.20;99.90
11047;DHT22;5576;50.008;10.596;2023-05-10T11:11:24;18.30;99.90
11047;DHT22;5576;50.008;10.596;2023-05-10T11:13:51;18.30;99.90
11047;DHT22;5576;50.008;10.596;2023-05-10T11:16:19;17.30;99.90
11047;DHT22;5576;50.008;10.596;2023-05-10T11:19:03;18.50;99.90
11047;DHT22;5576;50.008;10.596;2023-05-10T11:21:30;18.60;99.90
11047;DHT22;5576;50.008;10.596;2023-05-10T11:23:57;14.90;99.90
11047;DHT22;5576;50.008;10.596;2023-05-10T11:26:25;18.70;99.90
11047;DHT22;5576;50.008;10.596;2023-05-10T11:28:53;22.60;99.90
11047;DHT22;5576;50.008;10.596;2023-05-10T11:31:21;19.80;99.90
11047;DHT22;5576;50.008;10.596;2023-05-10T11:33:52;18.90;99.90
11047;DHT22;5576;50.008;10.596;2023-05-10T11:36:21;21.70;99.90
11047;DHT22;5576;50.008;10.596;2023-05-10T11:38:47;19.00;99.90
11047;DHT22;5576;50.008;10.596;2023-05-10T11:41:16;18.80;99.90
11047;DHT22;5576;50.008;10.596;2023-05-10T11:43:42;18.80;99.90
11047;DHT22;5576;50.008;10.596;2023-05-10T11:46:11;18.80;99.90
11047;DHT22;5576;50.008;10.596;2023-05-10T11:48:39;18.80;99.90
11047;DHT22;5576;50.008;10.596;2023-05-10T11:51:06;18.60;99.90
11047;DHT22;5576;50.008;10.596;2023-05-10T11:53:32;18.70;99.90
11047;DHT22;5576;50.008;10.596;2023-05-10T11:56:08;18.70;99.90
11047;DHT22;5576;50.008;10.596;2023-05-10T11:58:34;18.70;99.90
11047;DHT22;5576;50.008;10.596;2023-05-10T12:01:01;18.70;99.90
11047;DHT22;5576;50.008;10.596;2023-05-10T12:03:28;22.30;99.90
11047;DHT22;5576;50.008;10.596;2023-05-10T12:05:55;18.70;99.90
11047;DHT22;5576;50.008;10.596;2023-05-10T12:08:24;20.90;99.90
11047;DHT22;5576;50.008;10.596;2023-05-10T12:10:51;19.00;99.90
11047;DHT22;5576;50.008;10.596;2023-05-10T12:13:18;16.10;99.90
11047;DHT22;5576;50.008;10.596;2023-05-10T12:15:44;19.10;99.90
11047;DHT22;5576;50.008;10.596;2023-05-10T12:18:11;19.00;99.90
11047;DHT22;5576;50.008;10.596;2023-05-10T12:20:37;19.20;99.90
11047;DHT22;5576;50.008;10.596;2023-05-10T12:23:04;19.20;99.90
11047;DHT22;5576;50.008;10.596;2023-05-10T12:25:35;19.50;99.90
11047;DHT22;5576;50.008;10.596;2023-05-10T12:28:04;19.80;99.90
11047;DHT22;5576;50.008;10.596;2023-05-10T12:30:32;20.40;99.90
11047;DHT22;5576;50.008;10.596;2023-05-10T12:33:07;19.90;99.90
11047;DHT22;5576;50.008;10.596;2023-05-10T12:35:33;21.10;99.90
11047;DHT22;5576;50.008;10.596;2023-05-10T12:37:59;19.90;99.90
11047;DHT22;5576;50.008;10.596;2023-05-10T12:40:25;19.90;99.90
11047;DHT22;5576;50.008;10.596;2023-05-10T12:42:51;20.90;99.90
11047;DHT22;5576;50.008;10.596;2023-05-10T12:45:18;19.60;99.90
11047;DHT22;5576;50.008;10.596;2023-05-10T12:47:43;19.50;99.90
11047;DHT22;5576;50.008;10.596;2023-05-10T12:50:09;19.50;99.90
11047;DHT22;5576;50.008;10.596;2023-05-10T12:52:35;19.60;99.90
11047;DHT22;5576;50.008;10.596;2023-05-10T12:55:01;19.60;99.90
11047;DHT22;5576;50.008;10.596;2023-05-10T12:57:28;19.60;99.90
11047;DHT22;5576;50.008;10.596;2023-05-10T12:59:54;19.50;99.90
11047;DHT22;5576;50.008;10.596;2023-05-10T13:02:20;19.70;99.90
11047;DHT22;5576;50.008;10.596;2023-05-10T13:04:47;19.80;99.90
11047;DHT22;5576;50.008;10.596;2023-05-10T13:07:13;17.30;99.90
11047;DHT22;5576;50.008;10.596;2023-05-10T13:09:39;19.80;99.90
11047;DHT22;5576;50.008;10.596;2023-05-10T13:12:05;20.00;99.90
11047;DHT22;5576;50.008;10.596;2023-05-10T13:14:31;20.00;99.90
11047;DHT22;5576;50.008;10.596;2023-05-10T13:16:57;19.90;99.90
11047;DHT22;5576;50.008;10.596;2023-05-10T13:19:22;19.80;99.90
11047;DHT22;5576;50.008;10.596;2023-05-10T13:21:48;19.80;99.90
11047;DHT22;5576;50.008;10.596;2023-05-10T13:24:14;19.80;99.90
11047;DHT22;5576;50.008;10.596;2023-05-10T13:26:40;19.70;99.90
11047;DHT22;5576;50.008;10.596;2023-05-10T13:29:06;19.70;99.90
11047;DHT22;5576;50.008;10.596;2023-05-10T13:31:34;19.70;99.90
11047;DHT22;5576;50.008;10.596;2023-05-10T13:34:00;19.90;99.90
11047;DHT22;5576;50.008;10.596;2023-05-10T13:36:26;19.60;99.90
11047;DHT22;5576;50.008;10.596;2023-05-10T13:38:51;22.60;99.90
11047;DHT22;5576;50.008;10.596;2023-05-10T13:41:17;19.50;99.90
11047;DHT22;5576;50.008;10.596;2023-05-10T13:43:43;19.50;99.90
11047;DHT22;5576;50.008;10.596;2023-05-10T13:46:09;19.40;99.90
11047;DHT22;5576;50.008;10.596;2023-05-10T13:48:35;19.30;99.90
11047;DHT22;5576;50.008;10.596;2023-05-10T13:51:02;19.40;99.90
11047;DHT22;5576;50.008;10.596;2023-05-10T13:53:29;19.30;99.90
11047;DHT22;5576;50.008;10.596;2023-05-10T13:55:55;19.30;99.90
11047;DHT22;5576;50.008;10.596;2023-05-10T13:58:21;19.40;99.90
11047;DHT22;5576;50.008;10.596;2023-05-10T14:00:46;22.60;99.90
11047;DHT22;5576;50.008;10.596;2023-05-10T14:03:13;16.80;99.90
11047;DHT22;5576;50.008;10.596;2023-05-10T14:05:39;17.30;99.90
11047;DHT22;5576;50.008;10.596;2023-05-10T14:08:04;19.60;99.90
11047;DHT22;5576;50.008;10.596;2023-05-10T14:10:30;19.70;99.90
11047;DHT22;5576;50.008;10.596;2023-05-10T14:12:56;19.70;99.90
11047;DHT22;5576;50.008;10.596;2023-05-10T14:15:22;19.70;99.90
11047;DHT22;5576;50.008;10.596;2023-05-10T14:17:48;22.60;99.90
11047;DHT22;5576;50.008;10.596;2023-05-10T14:20:13;19.50;99.90
11047;DHT22;5576;50.008;10.596;2023-05-10T14:22:39;19.60;99.90
11047;DHT22;5576;50.008;10.596;2023-05-10T14:25:06;19.60;99.90
11047;DHT22;5576;50.008;10.596;2023-05-10T14:27:32;19.60;99.90
11047;DHT22;5576;50.008;10.596;2023-05-10T14:29:58;19.70;99.90
11047;DHT22;5576;50.008;10.596;2023-05-10T14:32:23;19.60;99.90
11047;DHT22;5576;50.008;10.596;2023-05-10T14:34:49;19.50;99.90
11047;DHT22;5576;50.008;10.596;2023-05-10T14:37:16;20.80;99.90
11047;DHT22;5576;50.008;10.596;2023-05-10T14:39:42;19.40;99.90
11047;DHT22;5576;50.008;10.596;2023-05-10T14:42:08;19.50;99.90
11047;DHT22;5576;50.008;10.596;2023-05-10T14:44:34;19.50;99.90
11047;DHT22;5576;50.008;10.596;2023-05-10T14:47:00;17.70;99.90
11047;DHT22;5576;50.008;10.596;2023-05-10T14:49:26;19.20;99.90
11047;DHT22;5576;50.008;10.596;2023-05-10T14:51:52;19.20;99.90
11047;DHT22;5576;50.008;10.596;2023-05-10T14:54:18;19.20;99.90
11047;DHT22;5576;50.008;10.596;2023-05-10T14:56:44;19.20;99.90
11047;DHT22;5576;50.008;10.596;2023-05-10T14:59:09;19.00;99.90
11047;DHT22;5576;50.008;10.596;2023-05-10T15:01:35;18.10;99.90
11047;DHT22;5576;50.008;10.596;2023-05-10T15:04:04;19.10;99.90
11047;DHT22;5576;50.008;10.596;2023-05-10T15:06:32;19.00;99.90
11047;DHT22;5576;50.008;10.596;2023-05-10T15:08:58;18.90;99.90
11047;DHT22;5576;50.008;10.596;2023-05-10T15:11:24;21.10;99.90
11047;DHT22;5576;50.008;10.596;2023-05-10T15:13:49;18.80;99.90
11047;DHT22;5576;50.008;10.596;2023-05-10T15:16:15;18.70;99.90
11047;DHT22;5576;50.008;10.596;2023-05-10T15:18:41;18.80;99.90
11047;DHT22;5576;50.008;10.596;2023-05-10T15:21:07;19.00;99.90
11047;DHT22;5576;50.008;10.596;2023-05-10T15:23:32;19.00;99.90
11047;DHT22;5576;50.008;10.596;2023-05-10T15:25:58;19.00;99.90
11047;DHT22;5576;50.008;10.596;2023-05-10T15:28:24;21.60;99.90
11047;DHT22;5576;50.008;10.596;2023-05-10T15:30:50;18.80;99.90
11047;DHT22;5576;50.008;10.596;2023-05-10T15:33:15;18.80;99.90
11047;DHT22;5576;50.008;10.596;2023-05-10T15:35:41;18.90;99.90
11047;DHT22;5576;50.008;10.596;2023-05-10T15:38:07;18.70;99.90
11047;DHT22;5576;50.008;10.596;2023-05-10T15:40:32;18.60;99.90
11047;DHT22;5576;50.008;10.596;2023-05-10T15:42:58;21.60;99.90
11047;DHT22;5576;50.008;10.596;2023-05-10T15:45:24;18.60;99.90
11047;DHT22;5576;50.008;10.596;2023-05-10T15:47:50;21.20;99.90
11047;DHT22;5576;50.008;10.596;2023-05-10T15:50:16;18.50;99.90
11047;DHT22;5576;50.008;10.596;2023-05-10T15:52:42;18.40;99.90